Wayne, MI (48184)

11:31 AM EDT on March 31, 2015 (GMT -0400)
Brookside Village | | Change Station
CLOSE
Current Station
Personal Weather Station
Location: Canton, MI
Elevation: 682 ft
Nearby Weather Stations

Elev 682 ft 42.30 °N, 83.43 °W | Updated 10 seconds ago

Overcast
Overcast
34.9 °F
Feels Like 31 °F
N
4.3
Wind Variable Wind from NE
Gusts 6.0 mph

Today
High -- | Low -- °F
--% Chance of Precip.
Yesterday
High -- | Low -- °F
Precip. -- in
7:18 AM 7:57 PM
Waxing Gibbous, 87% visible
Pressure 29.80 in
Visibility 2.0 miles
Clouds Overcast 700 ft
Windchill 31 °F
Dew Point 33 °F
Humidity 94%
Rainfall 0.25 in
Snow Depth Not available.
UV 1 out of 12
Pollen 4.50 out of 12
Air Quality Not available.
Flu Activity Not available.
METAR KDTW 311453Z 02010KT 2SM BR OVC007 02/01 A2978 RMK AO2 SFC VIS 2 1/2 SNB31E46 SLP090 P0000 60000 T00220011 51018

More Conditions Fewer Conditions

Pressure 29.80 in
Visibility 2.0 miles
Clouds Overcast 700 ft
Windchill 31 °F
Dew Point 33 °F
Humidity 94%
Rainfall 0.25 in
Snow Depth Not available.
UV 1 out of 12
Pollen 4.50 out of 12
Air Quality Not available.
Flu Activity Not available.
METAR KDTW 311453Z 02010KT 2SM BR OVC007 02/01 A2978 RMK AO2 SFC VIS 2 1/2 SNB31E46 SLP090 P0000 60000 T00220011 51018

More Conditions Fewer Conditions

10-Day Weather Forecast

Almanac

Astronomy

Mar. 31, 2015 Rise Set
Actual Time
Civil Twilight
Nautical Twilight
Astronomical Twilight
Moon
Length of Visible Light
Length of Day
Tomorrow will be .
, % of the Moon is Illuminated

Today's Extremes

State Highs State Lows

Community

WunderPhotos

Upload Photos

1,809,781 photos uploaded!

WunderBlogs® & News

Nearby

Air Quality

  Air Quality AQ Index Pollutant
Not available.

Snow Depth

Station Depth Elevation

Earthquake Activity

City Distance Mag. Time & Date
Minimum magnitude displayed is 2.5.

Coastal Water Temperatures

Place Temperature

Stations

Nearby Weather Stations

Station Location Temp. Windchill Dew Point Humidity Wind Precip. Elev Updated Type